Time;durP1;ratioP1;P1;durP2;ratioP2;P2;SDS_P1;SDS_P2;PMS_P1;PMS_P2;Temp;Humidity;BMP_temperature;BMP_pressure;BME280_temperature;BME280_humidity;BME280_pressure;Samples;Min_cycle;Max_cycle;Signal;HPM_P1;HPM_P2
2022/12/05 00:00:48;;;;;;;23.40;9.50;;;;;;;;;;5010729;28;20065;-65
2022/12/05 00:03:14;;;;;;;25.40;9.93;;;;;;;;;;5011786;28;20060;-65
2022/12/05 00:05:41;;;;;;;26.98;9.95;;;;;;;;;;5030631;28;20057;-66
2022/12/05 00:08:09;;;;;;;23.42;9.40;;;;;;;;;;5015517;28;20056;-66
2022/12/05 00:10:35;;;;;;;26.92;9.25;;;;;;;;;;5016230;28;20052;-68
2022/12/05 00:13:02;;;;;;;23.80;9.88;;;;;;;;;;5005520;28;20048;-67
2022/12/05 00:15:28;;;;;;;25.52;9.45;;;;;;;;;;5034493;28;20089;-66
2022/12/05 00:17:55;;;;;;;23.50;9.85;;;;;;;;;;5029967;28;20145;-66
2022/12/05 00:20:21;;;;;;;24.48;9.40;;;;;;;;;;5033531;28;20084;-68
2022/12/05 00:22:49;;;;;;;25.35;9.80;;;;;;;;;;5011353;28;20060;-65
2022/12/05 00:25:17;;;;;;;25.45;10.57;;;;;;;;;;5033285;28;20049;-68
2022/12/05 00:27:43;;;;;;;23.38;10.32;;;;;;;;;;5038698;28;20080;-66
2022/12/05 00:30:10;;;;;;;24.85;10.75;;;;;;;;;;5004755;28;20143;-65
2022/12/05 00:32:36;;;;;;;27.95;10.07;;;;;;;;;;5016206;28;20045;-66
2022/12/05 00:35:03;;;;;;;29.35;9.75;;;;;;;;;;4994002;28;20142;-69
2022/12/05 00:37:30;;;;;;;22.85;9.80;;;;;;;;;;4993390;28;20052;-65
2022/12/05 00:39:56;;;;;;;28.67;10.07;;;;;;;;;;4990610;28;20053;-68
2022/12/05 00:42:24;;;;;;;25.50;10.43;;;;;;;;;;4977427;28;20076;-65
2022/12/05 00:44:51;;;;;;;26.63;10.57;;;;;;;;;;5009893;28;20056;-68
2022/12/05 00:47:17;;;;;;;25.98;10.70;;;;;;;;;;4989839;28;20049;-67
2022/12/05 00:49:44;;;;;;;21.90;9.50;;;;;;;;;;4997706;28;20076;-66
2022/12/05 00:52:11;;;;;;;23.13;9.48;;;;;;;;;;5020716;28;20060;-68
2022/12/05 00:54:38;;;;;;;24.23;9.10;;;;;;;;;;5017920;28;20052;-66
2022/12/05 00:57:05;;;;;;;22.90;9.13;;;;;;;;;;5030087;28;20056;-67
2022/12/05 00:59:33;;;;;;;25.27;10.40;;;;;;;;;;5050751;28;20114;-66
2022/12/05 01:01:59;;;;;;;26.63;9.65;;;;;;;;;;5028650;28;20056;-66
2022/12/05 01:04:26;;;;;;;24.90;10.18;;;;;;;;;;5026042;28;20053;-66
2022/12/05 01:06:54;;;;;;;27.40;10.02;;;;;;;;;;5020432;28;20102;-65
2022/12/05 01:09:24;;;;;;;27.58;11.10;;;;;;;;;;5012807;28;20077;-67
2022/12/05 01:11:51;;;;;;;24.92;9.35;;;;;;;;;;5054695;28;20097;-67
2022/12/05 01:14:19;;;;;;;28.60;10.32;;;;;;;;;;5014339;28;20095;-65
2022/12/05 01:16:48;;;;;;;26.05;10.68;;;;;;;;;;5041481;28;20064;-67
2022/12/05 01:19:15;;;;;;;23.95;9.98;;;;;;;;;;5024376;28;20069;-66
2022/12/05 01:21:42;;;;;;;24.77;10.37;;;;;;;;;;5014034;28;20060;-65
2022/12/05 01:24:09;;;;;;;25.27;9.95;;;;;;;;;;5012822;28;20071;-67
2022/12/05 01:26:36;;;;;;;26.98;10.75;;;;;;;;;;5042250;28;20052;-66
2022/12/05 01:29:03;;;;;;;25.05;9.95;;;;;;;;;;5018977;28;20064;-67
2022/12/05 01:31:31;;;;;;;25.02;9.13;;;;;;;;;;5037748;28;20060;-66
2022/12/05 01:34:01;;;;;;;27.23;9.98;;;;;;;;;;5042777;28;20057;-68
2022/12/05 01:36:28;;;;;;;27.00;10.40;;;;;;;;;;5038893;28;20060;-66
2022/12/05 01:38:54;;;;;;;24.65;9.45;;;;;;;;;;5033162;28;20053;-65
2022/12/05 01:41:22;;;;;;;25.65;9.82;;;;;;;;;;5023194;28;20048;-64
2022/12/05 01:44:01;;;;;;;28.02;10.43;;;;;;;;;;5040966;28;20055;-67
2022/12/05 01:46:29;;;;;;;27.70;9.95;;;;;;;;;;5022978;28;20125;-64
2022/12/05 01:48:58;;;;;;;24.02;9.43;;;;;;;;;;5020272;28;20048;-68
2022/12/05 01:51:26;;;;;;;27.70;10.57;;;;;;;;;;5010185;28;20057;-66
2022/12/05 01:53:53;;;;;;;26.52;9.60;;;;;;;;;;5020522;28;20055;-64
2022/12/05 01:56:20;;;;;;;27.58;9.38;;;;;;;;;;5007846;28;20197;-64
2022/12/05 01:58:47;;;;;;;27.40;10.30;;;;;;;;;;5045623;28;20053;-65
2022/12/05 02:01:15;;;;;;;26.25;9.65;;;;;;;;;;5012657;28;20060;-66
2022/12/05 02:03:42;;;;;;;23.65;9.43;;;;;;;;;;5039633;28;20073;-65
2022/12/05 02:06:09;;;;;;;25.52;10.30;;;;;;;;;;5036460;28;20110;-65
2022/12/05 02:08:37;;;;;;;26.55;10.10;;;;;;;;;;5039548;28;20067;-65
2022/12/05 02:11:06;;;;;;;29.20;10.57;;;;;;;;;;5014373;28;20065;-65
2022/12/05 02:13:37;;;;;;;22.60;9.63;;;;;;;;;;5034785;28;20085;-66
2022/12/05 02:16:06;;;;;;;23.40;9.95;;;;;;;;;;5023679;28;20056;-66
2022/12/05 02:18:32;;;;;;;;;;;;;;;;;;5040651;28;20068;-67
2022/12/05 02:21:05;;;;;;;19.02;8.30;;;;;;;;;;5032313;28;19932;-67
2022/12/05 02:23:50;;;;;;;22.50;8.43;;;;;;;;;;5018159;28;20072;-70
2022/12/05 02:26:37;;;;;;;24.60;10.02;;;;;;;;;;5035727;28;20088;-70
2022/12/05 02:29:26;;;;;;;23.45;9.63;;;;;;;;;;4992961;28;20060;-66
2022/12/05 02:31:57;;;;;;;21.55;9.15;;;;;;;;;;4994848;28;20053;-67
2022/12/05 02:34:27;;;;;;;24.58;9.75;;;;;;;;;;5033368;28;20076;-65
2022/12/05 02:36:57;;;;;;;23.88;9.43;;;;;;;;;;5015578;28;20064;-67
2022/12/05 02:39:26;;;;;;;25.92;9.88;;;;;;;;;;5019723;28;20056;-66
2022/12/05 02:41:55;;;;;;;25.20;9.43;;;;;;;;;;5027720;28;20056;-67
2022/12/05 02:44:22;;;;;;;;;;;;;;;;;;5040263;28;20068;-66
2022/12/05 02:46:51;;;;;;;20.63;7.88;;;;;;;;;;5008735;28;19974;-65
2022/12/05 02:49:20;;;;;;;26.65;9.30;;;;;;;;;;5050253;28;20134;-66
2022/12/05 02:51:52;;;;;;;22.35;9.43;;;;;;;;;;5033783;28;20128;-68
2022/12/05 02:54:21;;;;;;;25.77;9.55;;;;;;;;;;5018397;28;20152;-68
2022/12/05 02:56:51;;;;;;;22.95;9.30;;;;;;;;;;5015667;28;20050;-64
2022/12/05 02:59:18;;;;;;;22.90;9.50;;;;;;;;;;5017743;28;20056;-66
2022/12/05 03:01:45;;;;;;;20.92;9.02;;;;;;;;;;5039181;28;20057;-66
2022/12/05 03:04:12;;;;;;;20.48;8.68;;;;;;;;;;4981251;28;20044;-68
2022/12/05 03:06:42;;;;;;;21.95;8.65;;;;;;;;;;5038459;28;20059;-66
2022/12/05 03:09:10;;;;;;;24.45;9.48;;;;;;;;;;5012141;28;20055;-65
2022/12/05 03:11:38;;;;;;;25.35;9.07;;;;;;;;;;5014284;28;20053;-66
2022/12/05 03:14:06;;;;;;;21.98;8.35;;;;;;;;;;5014262;28;20106;-66
2022/12/05 03:16:35;;;;;;;24.70;8.98;;;;;;;;;;5018645;28;20057;-68
2022/12/05 03:19:04;;;;;;;25.73;9.57;;;;;;;;;;5032365;28;20049;-67
2022/12/05 03:21:34;;;;;;;24.83;9.25;;;;;;;;;;5031063;28;21166;-66
2022/12/05 03:24:04;;;;;;;24.23;9.15;;;;;;;;;;5006700;28;20052;-66
2022/12/05 03:26:41;;;;;;;24.83;8.68;;;;;;;;;;5018449;28;20068;-67
2022/12/05 03:29:12;;;;;;;26.70;9.20;;;;;;;;;;5015057;28;20056;-65
2022/12/05 03:31:41;;;;;;;22.23;8.60;;;;;;;;;;5053408;28;20126;-66
2022/12/05 03:34:12;;;;;;;25.00;9.02;;;;;;;;;;5007747;28;20059;-65
2022/12/05 03:36:41;;;;;;;24.58;9.15;;;;;;;;;;5023977;28;20088;-66
2022/12/05 03:39:13;;;;;;;26.40;9.65;;;;;;;;;;4994119;28;20149;-65
2022/12/05 03:41:41;;;;;;;21.65;8.75;;;;;;;;;;5002386;28;20067;-67
2022/12/05 03:44:09;;;;;;;21.60;9.30;;;;;;;;;;5030575;28;20064;-67
2022/12/05 03:46:39;;;;;;;20.97;8.27;;;;;;;;;;5033507;28;20049;-65
2022/12/05 03:49:12;;;;;;;23.95;9.18;;;;;;;;;;5036253;28;20314;-67
2022/12/05 03:51:41;;;;;;;21.30;8.18;;;;;;;;;;5016717;28;20388;-65
2022/12/05 03:54:12;;;;;;;21.63;8.23;;;;;;;;;;5008426;28;20117;-66
2022/12/05 03:56:41;;;;;;;22.25;8.60;;;;;;;;;;5033915;28;20158;-67
2022/12/05 03:59:11;;;;;;;20.08;8.10;;;;;;;;;;5034885;28;20063;-65
2022/12/05 04:01:39;;;;;;;22.67;9.52;;;;;;;;;;5017541;28;20067;-64
2022/12/05 04:04:09;;;;;;;19.88;9.02;;;;;;;;;;5032898;28;20087;-65
2022/12/05 04:06:38;;;;;;;23.65;9.65;;;;;;;;;;5034047;28;20092;-65
2022/12/05 04:09:07;;;;;;;20.77;8.02;;;;;;;;;;5017473;28;20102;-65
2022/12/05 04:11:38;;;;;;;21.10;8.63;;;;;;;;;;5027030;28;21656;-67
2022/12/05 04:14:06;;;;;;;21.42;8.70;;;;;;;;;;5023050;28;20088;-67
2022/12/05 04:19:19;;;;;;;20.17;7.25;;;;;;;;;;5041499;28;19921;-65
2022/12/05 04:21:46;;;;;;;18.15;7.82;;;;;;;;;;5014979;28;20051;-68
2022/12/05 04:27:04;;;;;;;22.70;8.00;;;;;;;;;;5017642;28;20053;-68
2022/12/05 04:29:33;;;;;;;21.98;7.40;;;;;;;;;;5028464;28;20156;-65
2022/12/05 04:32:04;;;;;;;18.65;8.20;;;;;;;;;;5028244;28;20059;-68
2022/12/05 04:34:31;;;;;;;21.38;7.88;;;;;;;;;;5005798;28;20044;-66
2022/12/05 04:37:00;;;;;;;19.95;8.88;;;;;;;;;;5022847;28;20053;-67
2022/12/05 04:39:26;;;;;;;;;;;;;;;;;;5016903;28;20106;-67
2022/12/05 04:41:54;;;;;;;16.95;6.50;;;;;;;;;;5034814;28;19990;-66
2022/12/05 04:44:25;;;;;;;19.27;8.45;;;;;;;;;;5008174;28;20114;-66
2022/12/05 04:46:53;;;;;;;21.17;8.27;;;;;;;;;;5005129;28;20051;-65
2022/12/05 04:49:21;;;;;;;20.60;8.10;;;;;;;;;;5024579;28;20060;-65
2022/12/05 04:51:48;;;;;;;;;;;;;;;;;;5020930;28;20079;-65
2022/12/05 04:54:17;;;;;;;19.70;6.50;;;;;;;;;;5010369;28;19929;-66
2022/12/05 04:56:45;;;;;;;19.88;8.05;;;;;;;;;;5004803;28;20396;-68
2022/12/05 04:59:12;;;;;;;18.50;7.55;;;;;;;;;;4983083;28;20057;-66
2022/12/05 05:01:42;;;;;;;20.33;7.90;;;;;;;;;;5007620;28;20103;-65
2022/12/05 05:04:11;;;;;;;22.85;7.85;;;;;;;;;;4993353;28;20053;-65
2022/12/05 05:06:38;;;;;;;17.63;8.00;;;;;;;;;;4988835;28;20151;-67
2022/12/05 05:09:04;;;;;;;20.08;7.60;;;;;;;;;;5002982;28;20060;-69
2022/12/05 05:11:32;;;;;;;19.15;7.82;;;;;;;;;;5005462;28;20079;-68
2022/12/05 05:13:59;;;;;;;18.58;7.72;;;;;;;;;;5015911;28;20115;-68
2022/12/05 05:16:26;;;;;;;19.90;7.72;;;;;;;;;;5057671;28;20087;-65
2022/12/05 05:18:54;;;;;;;16.40;7.50;;;;;;;;;;5013546;28;20049;-66
2022/12/05 05:21:21;;;;;;;17.93;7.47;;;;;;;;;;4998072;28;20057;-64
2022/12/05 05:23:48;;;;;;;15.52;6.30;;;;;;;;;;5001199;28;20314;-66
2022/12/05 05:26:15;;;;;;;19.27;8.27;;;;;;;;;;5049029;28;20060;-66
2022/12/05 05:28:43;;;;;;;21.90;8.05;;;;;;;;;;5034724;28;20052;-66
2022/12/05 05:31:09;;;;;;;16.52;7.15;;;;;;;;;;5014043;28;20110;-65
2022/12/05 05:33:36;;;;;;;17.73;7.97;;;;;;;;;;5000498;28;20122;-70
2022/12/05 05:36:05;;;;;;;20.33;8.52;;;;;;;;;;5002432;28;20064;-70
2022/12/05 05:38:35;;;;;;;19.95;7.95;;;;;;;;;;5041485;28;20180;-68
2022/12/05 05:41:01;;;;;;;20.67;7.97;;;;;;;;;;5038688;28;20110;-65
2022/12/05 05:43:28;;;;;;;17.08;7.40;;;;;;;;;;5030180;28;20062;-69
2022/12/05 05:45:55;;;;;;;19.63;7.47;;;;;;;;;;5016123;28;20049;-68
2022/12/05 05:48:21;;;;;;;19.48;8.07;;;;;;;;;;5002170;28;20061;-68
2022/12/05 05:50:48;;;;;;;18.10;7.63;;;;;;;;;;5027973;28;20044;-67
2022/12/05 05:53:15;;;;;;;18.95;7.85;;;;;;;;;;5008014;28;20060;-65
2022/12/05 05:55:42;;;;;;;19.00;7.33;;;;;;;;;;5047290;28;20198;-68
2022/12/05 05:58:08;;;;;;;17.48;7.13;;;;;;;;;;5040126;28;20060;-67
2022/12/05 06:00:35;;;;;;;17.45;7.40;;;;;;;;;;5017620;28;20063;-65
2022/12/05 06:03:04;;;;;;;18.77;7.68;;;;;;;;;;5028748;28;20140;-68
2022/12/05 06:05:31;;;;;;;16.85;7.38;;;;;;;;;;5024029;28;20060;-68
2022/12/05 06:07:58;;;;;;;18.20;7.82;;;;;;;;;;5039409;28;20088;-65
2022/12/05 06:10:25;;;;;;;18.10;7.28;;;;;;;;;;5035377;28;20064;-65
2022/12/05 06:12:52;;;;;;;16.73;7.20;;;;;;;;;;5053922;28;20052;-66
2022/12/05 06:15:18;;;;;;;18.52;7.13;;;;;;;;;;5027814;28;20048;-67
2022/12/05 06:17:45;;;;;;;17.00;7.53;;;;;;;;;;5022235;28;20257;-66
2022/12/05 06:20:12;;;;;;;17.42;7.10;;;;;;;;;;5019331;28;20056;-67
2022/12/05 06:22:38;;;;;;;19.70;7.93;;;;;;;;;;5054729;28;20263;-65
2022/12/05 06:25:06;;;;;;;16.52;7.30;;;;;;;;;;5032021;28;20060;-65
2022/12/05 06:27:34;;;;;;;16.07;6.83;;;;;;;;;;5012961;28;21573;-65
2022/12/05 06:30:00;;;;;;;22.37;8.23;;;;;;;;;;5006525;28;20315;-67
2022/12/05 06:32:28;;;;;;;19.65;7.90;;;;;;;;;;5018798;28;20057;-65
2022/12/05 06:34:54;;;;;;;19.23;7.25;;;;;;;;;;5019607;28;20121;-66
2022/12/05 06:37:21;;;;;;;18.33;7.03;;;;;;;;;;5010426;28;20056;-68
2022/12/05 06:39:47;;;;;;;15.32;7.15;;;;;;;;;;5039621;28;20061;-68
2022/12/05 06:42:14;;;;;;;14.25;6.38;;;;;;;;;;5032947;28;20061;-65
2022/12/05 06:44:42;;;;;;;16.10;6.95;;;;;;;;;;4978158;28;20188;-64
2022/12/05 06:47:08;;;;;;;17.20;6.97;;;;;;;;;;5034748;28;20060;-65
2022/12/05 06:49:35;;;;;;;16.92;7.03;;;;;;;;;;5016574;28;20056;-67
2022/12/05 06:52:01;;;;;;;15.63;7.25;;;;;;;;;;5006796;28;20071;-64
2022/12/05 06:54:28;;;;;;;14.52;6.47;;;;;;;;;;4986276;28;20048;-67
2022/12/05 06:56:54;;;;;;;17.00;6.63;;;;;;;;;;5018006;28;20072;-64
2022/12/05 06:59:21;;;;;;;15.50;6.72;;;;;;;;;;5047075;28;20060;-66
2022/12/05 07:01:48;;;;;;;17.35;7.10;;;;;;;;;;5037257;28;20235;-65
2022/12/05 07:04:15;;;;;;;17.17;6.78;;;;;;;;;;4976838;28;20144;-68
2022/12/05 07:06:43;;;;;;;16.67;6.87;;;;;;;;;;5032330;28;20060;-68
2022/12/05 07:09:10;;;;;;;17.10;7.13;;;;;;;;;;5025859;28;20041;-66
2022/12/05 07:11:36;;;;;;;16.40;6.78;;;;;;;;;;5020489;28;20059;-67
2022/12/05 07:14:04;;;;;;;14.65;6.88;;;;;;;;;;5016713;28;20059;-67
2022/12/05 07:16:30;;;;;;;15.98;6.88;;;;;;;;;;5019703;28;20090;-66
2022/12/05 07:18:58;;;;;;;14.40;6.20;;;;;;;;;;5006917;28;20075;-65
2022/12/05 07:21:25;;;;;;;16.40;6.80;;;;;;;;;;5031428;28;20140;-64
2022/12/05 07:23:51;;;;;;;15.88;6.80;;;;;;;;;;5004485;28;20059;-67
2022/12/05 07:26:19;;;;;;;14.50;6.88;;;;;;;;;;5021505;28;20059;-64
2022/12/05 07:28:45;;;;;;;14.13;6.57;;;;;;;;;;5014361;28;20076;-67
2022/12/05 07:31:14;;;;;;;16.23;6.65;;;;;;;;;;5019893;28;20118;-64
2022/12/05 07:33:41;;;;;;;14.30;6.32;;;;;;;;;;5047235;28;20113;-65
2022/12/05 07:36:10;;;;;;;14.48;6.28;;;;;;;;;;5018200;28;20117;-66
2022/12/05 07:38:37;;;;;;;16.10;6.90;;;;;;;;;;4997204;28;20107;-66
2022/12/05 07:41:04;;;;;;;14.05;6.45;;;;;;;;;;5012169;28;20058;-64
2022/12/05 07:43:31;;;;;;;16.58;6.25;;;;;;;;;;5002349;28;21424;-66
2022/12/05 07:46:01;;;;;;;17.35;6.40;;;;;;;;;;5040441;28;20102;-64
2022/12/05 07:48:27;;;;;;;14.73;5.95;;;;;;;;;;5054864;28;20044;-66
2022/12/05 07:50:54;;;;;;;14.48;6.50;;;;;;;;;;5035292;28;20052;-65
2022/12/05 07:53:22;;;;;;;13.57;6.25;;;;;;;;;;5007172;28;20045;-67
2022/12/05 07:55:51;;;;;;;16.67;6.45;;;;;;;;;;4996814;28;20053;-65
2022/12/05 07:58:18;;;;;;;11.73;5.50;;;;;;;;;;5018094;28;20073;-65
2022/12/05 08:00:44;;;;;;;13.32;5.45;;;;;;;;;;5014749;28;20065;-65
2022/12/05 08:03:11;;;;;;;16.92;6.60;;;;;;;;;;5011201;28;20060;-65
2022/12/05 08:05:37;;;;;;;16.10;6.40;;;;;;;;;;5000000;28;20045;-66
2022/12/05 08:08:04;;;;;;;14.18;6.03;;;;;;;;;;5037867;28;20150;-64
2022/12/05 08:10:31;;;;;;;15.57;6.90;;;;;;;;;;5021177;28;20060;-67
2022/12/05 08:12:58;;;;;;;16.37;6.70;;;;;;;;;;4990004;28;20084;-65
2022/12/05 08:15:24;;;;;;;14.00;6.03;;;;;;;;;;5001516;28;20134;-64
2022/12/05 08:17:51;;;;;;;13.93;6.50;;;;;;;;;;5022361;28;20052;-67
2022/12/05 08:20:17;;;;;;;14.48;6.13;;;;;;;;;;5011540;28;20174;-65
2022/12/05 08:22:44;;;;;;;15.43;6.03;;;;;;;;;;5006162;28;20053;-66
2022/12/05 08:25:11;;;;;;;16.75;6.80;;;;;;;;;;5006568;28;20053;-68
2022/12/05 08:27:39;;;;;;;13.02;5.88;;;;;;;;;;5020312;28;20450;-64
2022/12/05 08:30:10;;;;;;;12.30;6.00;;;;;;;;;;4998136;28;20053;-66
2022/12/05 08:32:37;;;;;;;13.52;5.88;;;;;;;;;;5017472;28;20057;-67
2022/12/05 08:35:08;;;;;;;13.88;5.63;;;;;;;;;;5002986;28;20063;-65
2022/12/05 08:37:36;;;;;;;13.63;5.78;;;;;;;;;;5014911;28;20061;-64
2022/12/05 08:40:02;;;;;;;14.23;5.90;;;;;;;;;;5001621;28;20130;-64
2022/12/05 08:42:29;;;;;;;13.30;5.75;;;;;;;;;;5002036;28;20067;-66
2022/12/05 08:44:56;;;;;;;13.68;6.20;;;;;;;;;;5030851;28;20067;-64
2022/12/05 08:47:23;;;;;;;13.47;5.63;;;;;;;;;;4988821;28;20076;-65
2022/12/05 08:49:49;;;;;;;13.63;5.80;;;;;;;;;;4995460;28;20060;-67
2022/12/05 08:52:16;;;;;;;14.10;6.30;;;;;;;;;;5013507;28;20054;-64
2022/12/05 08:54:42;;;;;;;13.43;5.38;;;;;;;;;;5001937;28;20334;-67
2022/12/05 08:57:10;;;;;;;14.77;5.65;;;;;;;;;;5024352;28;20057;-67
2022/12/05 08:59:37;;;;;;;12.55;6.07;;;;;;;;;;5014248;28;20118;-67
2022/12/05 09:02:06;;;;;;;14.27;5.75;;;;;;;;;;4994184;28;20060;-64
2022/12/05 09:04:33;;;;;;;13.00;5.57;;;;;;;;;;4975182;28;20061;-64
2022/12/05 09:07:01;;;;;;;13.88;5.85;;;;;;;;;;4992164;28;20041;-64
2022/12/05 09:09:28;;;;;;;12.23;5.97;;;;;;;;;;4992487;28;20066;-66
2022/12/05 09:11:56;;;;;;;12.80;5.78;;;;;;;;;;5011658;28;20133;-66
2022/12/05 09:14:23;;;;;;;14.57;6.20;;;;;;;;;;4983456;28;20140;-67
2022/12/05 09:16:49;;;;;;;13.57;5.60;;;;;;;;;;4998085;28;20054;-65
2022/12/05 09:19:19;;;;;;;11.70;5.70;;;;;;;;;;5005691;28;20053;-64
2022/12/05 09:21:46;;;;;;;13.73;6.05;;;;;;;;;;5023575;28;20068;-65
2022/12/05 09:24:13;;;;;;;15.50;5.97;;;;;;;;;;4989355;28;20068;-65
2022/12/05 09:26:43;;;;;;;16.48;5.85;;;;;;;;;;5017095;28;20076;-66
2022/12/05 09:29:10;;;;;;;13.90;6.03;;;;;;;;;;5008726;28;20076;-66
2022/12/05 09:31:36;;;;;;;13.38;6.25;;;;;;;;;;5018131;28;20056;-65
2022/12/05 09:34:03;;;;;;;14.75;6.00;;;;;;;;;;4996588;28;20076;-66
2022/12/05 09:36:32;;;;;;;12.85;6.07;;;;;;;;;;5023372;28;20048;-65
2022/12/05 09:39:01;;;;;;;15.00;6.60;;;;;;;;;;5009579;28;20123;-66
2022/12/05 09:44:29;;;;;;;12.63;5.47;;;;;;;;;;5007080;28;20052;-66
2022/12/05 09:47:00;;;;;;;15.57;5.97;;;;;;;;;;5002224;28;20535;-65
2022/12/05 09:49:28;;;;;;;14.23;6.75;;;;;;;;;;4983276;28;20144;-64
2022/12/05 09:51:57;;;;;;;17.43;6.73;;;;;;;;;;4985336;28;20049;-67
2022/12/05 09:54:24;;;;;;;15.88;6.45;;;;;;;;;;4939708;28;20310;-64
2022/12/05 09:56:52;;;;;;;15.82;6.22;;;;;;;;;;5006725;28;20056;-67
2022/12/05 09:59:19;;;;;;;17.80;7.10;;;;;;;;;;5010173;28;20048;-66
2022/12/05 10:01:49;;;;;;;14.35;6.13;;;;;;;;;;5039535;28;20068;-66
2022/12/05 10:04:29;;;;;;;15.48;6.35;;;;;;;;;;5017811;28;20080;-67
2022/12/05 10:07:00;;;;;;;13.43;6.03;;;;;;;;;;5027688;28;20059;-68
2022/12/05 10:09:35;;;;;;;16.75;6.75;;;;;;;;;;5009385;28;20323;-64
2022/12/05 10:12:06;;;;;;;14.73;5.85;;;;;;;;;;5021113;28;20056;-64
2022/12/05 10:14:37;;;;;;;14.30;6.10;;;;;;;;;;5028881;28;20121;-66
2022/12/05 10:17:13;;;;;;;15.32;6.35;;;;;;;;;;5037530;28;20056;-67
2022/12/05 10:19:41;;;;;;;14.00;6.05;;;;;;;;;;5015041;28;20057;-66
2022/12/05 10:22:13;;;;;;;15.10;5.70;;;;;;;;;;5027560;28;20053;-65
2022/12/05 10:24:41;;;;;;;12.52;5.93;;;;;;;;;;5021608;28;20049;-67
2022/12/05 10:27:09;;;;;;;13.35;5.75;;;;;;;;;;5015699;28;20056;-64
2022/12/05 10:29:38;;;;;;;13.10;5.78;;;;;;;;;;5051381;28;20143;-67
2022/12/05 10:32:07;;;;;;;16.95;6.00;;;;;;;;;;5033551;28;20063;-67
2022/12/05 10:34:35;;;;;;;15.93;6.68;;;;;;;;;;4987030;28;20052;-68
2022/12/05 10:37:08;;;;;;;14.57;6.60;;;;;;;;;;5002687;28;20044;-66
2022/12/05 10:39:39;;;;;;;11.82;5.57;;;;;;;;;;5038696;28;20269;-68
2022/12/05 10:42:12;;;;;;;12.45;5.88;;;;;;;;;;5043719;28;20055;-66
2022/12/05 10:44:38;;;;;;;17.30;6.00;;;;;;;;;;5007683;28;20048;-66
2022/12/05 10:47:06;;;;;;;14.77;6.65;;;;;;;;;;5034157;28;20063;-68
2022/12/05 10:49:33;;;;;;;15.73;6.05;;;;;;;;;;5034871;28;20144;-66
2022/12/05 10:52:00;;;;;;;15.13;6.30;;;;;;;;;;5043178;28;20129;-69
2022/12/05 10:54:39;;;;;;;16.63;6.47;;;;;;;;;;4980251;28;20061;-69
2022/12/05 10:57:21;;;;;;;17.15;6.43;;;;;;;;;;5017095;28;20068;-67
2022/12/05 10:59:48;;;;;;;13.65;6.00;;;;;;;;;;4989541;28;20061;-65
2022/12/05 11:02:22;;;;;;;11.52;4.72;;;;;;;;;;4981397;28;20075;-67
2022/12/05 11:04:51;;;;;;;12.18;5.90;;;;;;;;;;4952501;28;20053;-67
2022/12/05 11:07:22;;;;;;;;;;;;;;;;;;4967999;28;20107;-67
2022/12/05 11:09:48;;;;;;;12.63;5.35;;;;;;;;;;5003751;28;19925;-68
2022/12/05 11:12:24;;;;;;;13.68;6.13;;;;;;;;;;5016715;28;20057;-69
2022/12/05 11:14:59;;;;;;;13.30;5.57;;;;;;;;;;4980972;28;20508;-66
2022/12/05 11:17:27;;;;;;;13.65;5.80;;;;;;;;;;5027807;28;20052;-65
2022/12/05 11:19:54;;;;;;;11.95;5.07;;;;;;;;;;4991610;28;20053;-66
2022/12/05 11:22:45;;;;;;;16.40;5.95;;;;;;;;;;5002701;28;20136;-66
2022/12/05 11:25:29;;;;;;;14.45;5.57;;;;;;;;;;4976172;28;20049;-64
2022/12/05 11:28:01;;;;;;;16.63;6.20;;;;;;;;;;5006104;28;20056;-68
2022/12/05 11:30:29;;;;;;;16.08;6.15;;;;;;;;;;5021871;28;20067;-69
2022/12/05 11:33:18;;;;;;;14.85;6.03;;;;;;;;;;5016409;28;20057;-65
2022/12/05 11:35:58;;;;;;;13.85;5.63;;;;;;;;;;5018356;28;20049;-68
2022/12/05 11:38:31;;;;;;;16.05;5.53;;;;;;;;;;5005743;28;20102;-68
2022/12/05 11:41:18;;;;;;;15.25;5.50;;;;;;;;;;5012495;28;20057;-66
2022/12/05 11:43:58;;;;;;;14.70;5.95;;;;;;;;;;5023750;28;20064;-68
2022/12/05 11:46:34;;;;;;;13.65;5.22;;;;;;;;;;4998800;28;20063;-67
2022/12/05 11:49:10;;;;;;;14.05;6.03;;;;;;;;;;5005215;28;20076;-67
2022/12/05 11:51:43;;;;;;;14.05;5.57;;;;;;;;;;5023265;28;20063;-67
2022/12/05 11:54:20;;;;;;;15.00;5.55;;;;;;;;;;5020688;28;20459;-66
2022/12/05 11:56:50;;;;;;;14.07;5.05;;;;;;;;;;5035534;28;20060;-64
2022/12/05 11:59:30;;;;;;;13.63;5.30;;;;;;;;;;5010509;28;20052;-64
2022/12/05 12:02:06;;;;;;;12.30;4.95;;;;;;;;;;5009959;28;20049;-67
2022/12/05 12:04:47;;;;;;;12.52;5.32;;;;;;;;;;4990532;28;20066;-65
2022/12/05 12:07:24;;;;;;;12.52;5.57;;;;;;;;;;4971498;28;20087;-67
2022/12/05 12:10:00;;;;;;;12.80;5.80;;;;;;;;;;5005704;28;20048;-69
2022/12/05 12:12:33;;;;;;;13.90;5.57;;;;;;;;;;5003181;28;20107;-68
2022/12/05 12:15:06;;;;;;;13.77;5.25;;;;;;;;;;4985511;28;20111;-65
2022/12/05 12:17:41;;;;;;;11.77;5.20;;;;;;;;;;4980035;28;20053;-65
2022/12/05 12:20:19;;;;;;;12.80;5.20;;;;;;;;;;4983998;28;20054;-65
2022/12/05 12:22:58;;;;;;;13.48;5.28;;;;;;;;;;4993174;28;20085;-66
2022/12/05 12:25:34;;;;;;;14.73;6.00;;;;;;;;;;4965164;28;20332;-68
2022/12/05 12:28:05;;;;;;;11.68;4.80;;;;;;;;;;4991102;28;20049;-68
2022/12/05 12:30:43;;;;;;;12.27;4.80;;;;;;;;;;5016131;28;20051;-69
2022/12/05 12:33:19;;;;;;;11.80;4.90;;;;;;;;;;5018275;28;20056;-68
2022/12/05 12:35:50;;;;;;;11.45;5.05;;;;;;;;;;4995536;28;20060;-67
2022/12/05 12:38:26;;;;;;;10.85;4.65;;;;;;;;;;5006612;28;20076;-66
2022/12/05 12:40:53;;;;;;;13.77;5.38;;;;;;;;;;5018555;28;20053;-67
2022/12/05 12:43:32;;;;;;;13.65;5.40;;;;;;;;;;5020189;28;20056;-66
2022/12/05 12:46:13;;;;;;;14.20;5.20;;;;;;;;;;5009875;28;20128;-67
2022/12/05 12:48:46;;;;;;;13.35;5.05;;;;;;;;;;5027124;28;20048;-68
2022/12/05 12:51:17;;;;;;;11.52;4.75;;;;;;;;;;5018221;28;20053;-69
2022/12/05 12:53:52;;;;;;;12.48;4.95;;;;;;;;;;4986102;28;20350;-65
2022/12/05 12:56:27;;;;;;;11.13;4.47;;;;;;;;;;4999397;28;20053;-67
2022/12/05 12:58:54;;;;;;;12.20;4.65;;;;;;;;;;5039764;28;20136;-64
2022/12/05 13:01:32;;;;;;;10.82;4.45;;;;;;;;;;5029951;28;20048;-65
2022/12/05 13:04:02;;;;;;;12.10;4.53;;;;;;;;;;5008367;28;20092;-66
2022/12/05 13:06:31;;;;;;;12.13;4.50;;;;;;;;;;5018470;28;20060;-65
2022/12/05 13:08:59;;;;;;;9.30;4.35;;;;;;;;;;5022478;28;20186;-65
2022/12/05 13:11:28;;;;;;;12.13;4.72;;;;;;;;;;5044847;28;20395;-67
2022/12/05 13:13:54;;;;;;;;;;;;;;;;;;5020051;28;20150;-67
2022/12/05 13:16:23;;;;;;;;;;;;;;;;;;5009768;28;19924;-67
2022/12/05 13:18:49;;;;;;;;;;;;;;;;;;5020569;28;19939;-66
2022/12/05 13:21:15;;;;;;;;;;;;;;;;;;5027941;28;19924;-69
2022/12/05 13:23:42;;;;;;;;;;;;;;;;;;5019053;28;19931;-67
2022/12/05 13:26:11;;;;;;;;;;;;;;;;;;4985728;28;19924;-65
2022/12/05 13:29:13;;;;;;;;;;;;;;;;;;;;;
2022/12/05 13:31:51;;;;;;;;;;;;;;;;;;5006270;28;19929;-67
2022/12/05 13:34:20;;;;;;;;;;;;;;;;;;4959350;28;19930;-65
2022/12/05 13:42:17;;;;;;;;;;;;;;;;;;5024172;28;19967;-64
2022/12/05 13:44:44;;;;;;;;;;;;;;;;;;4990949;28;19982;-67
2022/12/05 13:47:13;;;;;;;;;;;;;;;;;;5047123;28;19924;-68
2022/12/05 13:49:39;;;;;;;;;;;;;;;;;;5024840;28;19973;-66
2022/12/05 13:52:07;;;;;;;;;;;;;;;;;;5022912;28;20031;-66
2022/12/05 13:54:41;;;;;;;;;;;;;;;;;;4967992;28;19935;-65
2022/12/05 13:57:09;;;;;;;;;;;;;;;;;;5002336;28;19943;-65
2022/12/05 13:59:36;;;;;;;;;;;;;;;;;;5018241;28;19982;-66
2022/12/05 14:02:02;;;;;;;;;;;;;;;;;;4998437;28;19994;-67
2022/12/05 14:04:31;;;;;;;;;;;;;;;;;;4991275;28;19998;-67
2022/12/05 14:07:00;;;;;;;;;;;;;;;;;;5022836;28;20031;-67
2022/12/05 14:09:26;;;;;;;;;;;;;;;;;;4978920;28;19932;-66
2022/12/05 14:11:52;;;;;;;;;;;;;;;;;;4960674;28;19925;-67
2022/12/05 14:14:22;;;;;;;;;;;;;;;;;;4991430;28;19932;-66
2022/12/05 14:16:51;;;;;;;;;;;;;;;;;;4999165;28;19940;-66
2022/12/05 14:19:18;;;;;;;;;;;;;;;;;;5012274;28;19972;-67
2022/12/05 14:21:46;;;;;;;;;;;;;;;;;;4978163;28;19924;-66
2022/12/05 14:24:14;;;;;;;;;;;;;;;;;;5016934;28;19925;-66
2022/12/05 14:26:41;;;;;;;;;;;;;;;;;;5004510;28;20307;-67
2022/12/05 14:29:07;;;;;;;;;;;;;;;;;;4979764;28;19924;-67
2022/12/05 14:31:34;;;;;;;;;;;;;;;;;;4996265;28;21132;-67
2022/12/05 14:34:03;;;;;;;;;;;;;;;;;;5001737;28;20415;-68
2022/12/05 14:36:32;;;;;;;;;;;;;;;;;;5020965;28;19924;-67
2022/12/05 14:39:04;;;;;;;;;;;;;;;;;;5001176;28;19925;-63
2022/12/05 14:41:30;;;;;;;;;;;;;;;;;;4976358;28;20012;-65
2022/12/05 14:43:59;;;;;;;;;;;;;;;;;;4985796;28;19925;-65
2022/12/05 14:46:25;;;;;;;;;;;;;;;;;;4927124;28;19925;-66
2022/12/05 14:48:54;;;;;;;;;;;;;;;;;;4997496;28;19964;-64
2022/12/05 14:51:20;;;;;;;;;;;;;;;;;;4996384;28;19952;-65
2022/12/05 14:53:46;;;;;;;;;;;;;;;;;;5017395;28;20026;-64
2022/12/05 14:56:13;;;;;;;;;;;;;;;;;;4909071;28;19926;-67
2022/12/05 14:58:39;;;;;;;;;;;;;;;;;;4983453;28;19934;-68
2022/12/05 15:01:08;;;;;;;;;;;;;;;;;;5004175;28;19932;-66
2022/12/05 15:03:34;;;;;;;;;;;;;;;;;;5010660;28;19924;-66
2022/12/05 15:06:01;;;;;;;;;;;;;;;;;;4989280;28;19928;-68
2022/12/05 15:08:29;;;;;;;;;;;;;;;;;;5007577;28;19924;-66
2022/12/05 15:10:55;;;;;;;;;;;;;;;;;;5039165;28;19978;-67